sensor_id;sensor_type;location;lat;lon;timestamp;pressure;altitude;pressure_sealevel;temperature;humidity
46846;BME280;33947;46.804;134.252;2023-05-08T00:02:51;100257.22;;;22.99;23.38
46846;BME280;33947;46.804;134.252;2023-05-08T00:05:55;100260.53;;;23.35;22.77
46846;BME280;33947;46.804;134.252;2023-05-08T00:09:29;100262.13;;;23.90;22.13
46846;BME280;33947;46.804;134.252;2023-05-08T00:12:37;100273.84;;;23.27;22.83
46846;BME280;33947;46.804;134.252;2023-05-08T00:16:00;100269.91;;;23.20;22.61
46846;BME280;33947;46.804;134.252;2023-05-08T00:19:22;100222.38;;;23.27;21.98
46846;BME280;33947;46.804;134.252;2023-05-08T00:22:42;100265.72;;;23.27;22.51
46846;BME280;33947;46.804;134.252;2023-05-08T00:26:18;100242.06;;;23.72;21.96
46846;BME280;33947;46.804;134.252;2023-05-08T00:29:28;100230.19;;;23.09;22.52
46846;BME280;33947;46.804;134.252;2023-05-08T00:32:35;100237.59;;;23.39;22.13
46846;BME280;33947;46.804;134.252;2023-05-08T00:35:42;100250.50;;;23.78;21.78
46846;BME280;33947;46.804;134.252;2023-05-08T00:38:50;100245.13;;;23.88;21.75
46846;BME280;33947;46.804;134.252;2023-05-08T00:42:31;100228.09;;;24.48;21.36
46846;BME280;33947;46.804;134.252;2023-05-08T00:45:38;100225.81;;;24.53;21.20
46846;BME280;33947;46.804;134.252;2023-05-08T00:48:56;100244.94;;;24.42;21.30
46846;BME280;33947;46.804;134.252;2023-05-08T00:56:28;100187.41;;;21.69;23.42
46846;BME280;33947;46.804;134.252;2023-05-08T00:59:53;100135.53;;;21.52;23.70
46846;BME280;33947;46.804;134.252;2023-05-08T01:03:56;100094.19;;;19.85;25.24
46846;BME280;33947;46.804;134.252;2023-05-08T01:07:29;100112.66;;;22.58;23.24
46846;BME280;33947;46.804;134.252;2023-05-08T01:15:10;100187.34;;;23.88;22.24
46846;BME280;33947;46.804;134.252;2023-05-08T01:18:14;100197.25;;;24.69;21.49
46846;BME280;33947;46.804;134.252;2023-05-08T01:35:29;100160.53;;;24.75;21.12
46846;BME280;33947;46.804;134.252;2023-05-08T01:45:45;100142.06;;;26.21;19.60
46846;BME280;33947;46.804;134.252;2023-05-08T01:52:32;100119.94;;;26.06;19.87
46846;BME280;33947;46.804;134.252;2023-05-08T01:55:57;100063.06;;;25.57;19.56
46846;BME280;33947;46.804;134.252;2023-05-08T02:04:04;100050.84;;;24.95;20.06
46846;BME280;33947;46.804;134.252;2023-05-08T02:07:40;100059.75;;;24.58;20.49
46846;BME280;33947;46.804;134.252;2023-05-08T02:11:40;100003.47;;;24.40;20.66
46846;BME280;33947;46.804;134.252;2023-05-08T02:15:53;100063.59;;;24.85;19.91
46846;BME280;33947;46.804;134.252;2023-05-08T02:19:28;100002.09;;;24.94;19.84
46846;BME280;33947;46.804;134.252;2023-05-08T02:27:24;100034.78;;;25.50;19.63
46846;BME280;33947;46.804;134.252;2023-05-08T02:35:17;99983.03;;;25.32;18.87
46846;BME280;33947;46.804;134.252;2023-05-08T02:43:43;100011.88;;;25.52;18.95
46846;BME280;33947;46.804;134.252;2023-05-08T02:52:34;99991.94;;;23.48;18.94
46846;BME280;33947;46.804;134.252;2023-05-08T02:55:47;99996.81;;;22.82;20.00
46846;BME280;33947;46.804;134.252;2023-05-08T03:06:54;99876.81;;;21.22;20.58
46846;BME280;33947;46.804;134.252;2023-05-08T03:10:31;99874.84;;;21.24;20.95
46846;BME280;33947;46.804;134.252;2023-05-08T03:15:12;99975.47;;;22.04;20.83
46846;BME280;33947;46.804;134.252;2023-05-08T03:19:34;99886.97;;;22.99;20.63
46846;BME280;33947;46.804;134.252;2023-05-08T03:24:03;99919.94;;;23.75;19.50
46846;BME280;33947;46.804;134.252;2023-05-08T03:27:16;99947.50;;;22.89;19.85
46846;BME280;33947;46.804;134.252;2023-05-08T03:30:36;99940.56;;;22.44;20.21
46846;BME280;33947;46.804;134.252;2023-05-08T03:33:54;99907.88;;;22.47;19.78
46846;BME280;33947;46.804;134.252;2023-05-08T03:37:02;99908.00;;;22.76;18.62
46846;BME280;33947;46.804;134.252;2023-05-08T03:40:11;99894.69;;;22.63;19.02
46846;BME280;33947;46.804;134.252;2023-05-08T03:43:24;99925.94;;;23.08;18.43
46846;BME280;33947;46.804;134.252;2023-05-08T03:46:32;99809.28;;;22.49;17.89
46846;BME280;33947;46.804;134.252;2023-05-08T03:49:44;99912.22;;;23.10;17.03
46846;BME280;33947;46.804;134.252;2023-05-08T03:52:51;99875.53;;;23.47;17.45
46846;BME280;33947;46.804;134.252;2023-05-08T03:56:17;99888.22;;;23.46;17.02
46846;BME280;33947;46.804;134.252;2023-05-08T04:05:01;99767.22;;;22.45;17.79
46846;BME280;33947;46.804;134.252;2023-05-08T04:09:42;99880.69;;;22.58;17.79
46846;BME280;33947;46.804;134.252;2023-05-08T04:13:30;99796.81;;;22.06;18.59
46846;BME280;33947;46.804;134.252;2023-05-08T04:17:56;99871.69;;;22.48;18.99
46846;BME280;33947;46.804;134.252;2023-05-08T04:21:25;99726.91;;;21.49;19.25
46846;BME280;33947;46.804;134.252;2023-05-08T04:25:18;99728.81;;;21.37;19.03
46846;BME280;33947;46.804;134.252;2023-05-08T04:29:28;99780.88;;;21.60;19.72
46846;BME280;33947;46.804;134.252;2023-05-08T04:32:48;99815.84;;;21.94;19.49
46846;BME280;33947;46.804;134.252;2023-05-08T04:36:18;99789.00;;;22.84;18.60
46846;BME280;33947;46.804;134.252;2023-05-08T04:40:17;99775.09;;;23.19;17.85
46846;BME280;33947;46.804;134.252;2023-05-08T04:44:41;99680.41;;;23.07;18.09
46846;BME280;33947;46.804;134.252;2023-05-08T04:48:27;99684.13;;;23.26;17.62
46846;BME280;33947;46.804;134.252;2023-05-08T04:52:49;99781.13;;;24.19;17.83
46846;BME280;33947;46.804;134.252;2023-05-08T04:56:42;99808.28;;;24.09;17.99
46846;BME280;33947;46.804;134.252;2023-05-08T05:05:56;99719.91;;;23.20;17.88
46846;BME280;33947;46.804;134.252;2023-05-08T05:10:03;99641.97;;;22.54;18.49
46846;BME280;33947;46.804;134.252;2023-05-08T05:13:45;99679.28;;;22.61;17.72
46846;BME280;33947;46.804;134.252;2023-05-08T05:17:33;99733.16;;;23.23;17.82
46846;BME280;33947;46.804;134.252;2023-05-08T05:20:39;99742.56;;;23.19;18.02
46846;BME280;33947;46.804;134.252;2023-05-08T05:23:44;99735.44;;;22.88;18.03
46846;BME280;33947;46.804;134.252;2023-05-08T05:26:54;99704.22;;;22.74;17.81
46846;BME280;33947;46.804;134.252;2023-05-08T05:29:59;99720.59;;;22.82;18.15
46846;BME280;33947;46.804;134.252;2023-05-08T05:33:07;99708.34;;;22.78;18.57
46846;BME280;33947;46.804;134.252;2023-05-08T05:36:18;99682.91;;;22.40;18.67
46846;BME280;33947;46.804;134.252;2023-05-08T05:39:22;99697.44;;;22.39;19.17
46846;BME280;33947;46.804;134.252;2023-05-08T05:42:26;99683.75;;;22.31;19.17
46846;BME280;33947;46.804;134.252;2023-05-08T05:45:37;99699.66;;;22.24;19.66
46846;BME280;33947;46.804;134.252;2023-05-08T05:48:43;99685.91;;;21.96;19.36
46846;BME280;33947;46.804;134.252;2023-05-08T05:51:49;99664.38;;;21.85;19.48
46846;BME280;33947;46.804;134.252;2023-05-08T05:54:53;99686.66;;;22.49;18.91
46846;BME280;33947;46.804;134.252;2023-05-08T05:58:00;99679.16;;;22.82;18.68
46846;BME280;33947;46.804;134.252;2023-05-08T06:01:04;99673.13;;;23.18;18.67
46846;BME280;33947;46.804;134.252;2023-05-08T06:04:09;99663.75;;;23.02;18.49
46846;BME280;33947;46.804;134.252;2023-05-08T06:11:04;99619.91;;;22.08;19.01
46846;BME280;33947;46.804;134.252;2023-05-08T06:15:03;99632.13;;;22.03;19.52
46846;BME280;33947;46.804;134.252;2023-05-08T06:18:08;99623.03;;;22.04;19.73
46846;BME280;33947;46.804;134.252;2023-05-08T06:21:42;99552.13;;;21.49;20.11
46846;BME280;33947;46.804;134.252;2023-05-08T06:25:34;99547.13;;;21.14;20.59
46846;BME280;33947;46.804;134.252;2023-05-08T06:29:33;99589.53;;;21.54;20.63
46846;BME280;33947;46.804;134.252;2023-05-08T06:33:02;99558.50;;;21.17;20.21
46846;BME280;33947;46.804;134.252;2023-05-08T06:37:22;99621.09;;;21.53;20.12
46846;BME280;33947;46.804;134.252;2023-05-08T06:41:09;99474.06;;;20.42;20.33
46846;BME280;33947;46.804;134.252;2023-05-08T06:44:37;99586.41;;;20.96;20.44
46846;BME280;33947;46.804;134.252;2023-05-08T06:47:56;99569.03;;;20.78;20.59
46846;BME280;33947;46.804;134.252;2023-05-08T06:51:07;99584.16;;;20.80;20.81
46846;BME280;33947;46.804;134.252;2023-05-08T06:54:14;99589.41;;;20.82;20.69
46846;BME280;33947;46.804;134.252;2023-05-08T06:57:29;99607.50;;;20.70;20.86
46846;BME280;33947;46.804;134.252;2023-05-08T07:00:39;99608.22;;;20.72;20.55
46846;BME280;33947;46.804;134.252;2023-05-08T07:03:56;99602.94;;;20.71;20.51
46846;BME280;33947;46.804;134.252;2023-05-08T07:07:11;99568.06;;;20.25;20.96
46846;BME280;33947;46.804;134.252;2023-05-08T07:14:08;99596.75;;;20.26;21.47
46846;BME280;33947;46.804;134.252;2023-05-08T07:22:07;99600.47;;;20.14;21.24
46846;BME280;33947;46.804;134.252;2023-05-08T07:26:29;99601.81;;;20.08;20.15
46846;BME280;33947;46.804;134.252;2023-05-08T07:30:29;99505.69;;;19.63;20.39
46846;BME280;33947;46.804;134.252;2023-05-08T07:34:40;99511.34;;;19.60;20.25
46846;BME280;33947;46.804;134.252;2023-05-08T07:38:18;99511.59;;;19.57;20.54
46846;BME280;33947;46.804;134.252;2023-05-08T07:41:35;99565.47;;;19.79;20.58
46846;BME280;33947;46.804;134.252;2023-05-08T07:44:51;99602.94;;;19.83;20.67
46846;BME280;33947;46.804;134.252;2023-05-08T07:48:38;99539.41;;;19.34;20.74
46846;BME280;33947;46.804;134.252;2023-05-08T07:52:11;99585.69;;;19.62;20.89
46846;BME280;33947;46.804;134.252;2023-05-08T07:55:24;99591.81;;;19.53;21.20
46846;BME280;33947;46.804;134.252;2023-05-08T07:58:36;99517.13;;;18.98;21.37
46846;BME280;33947;46.804;134.252;2023-05-08T08:02:53;99602.22;;;19.35;21.87
46846;BME280;33947;46.804;134.252;2023-05-08T08:06:17;99566.06;;;19.03;22.05
46846;BME280;33947;46.804;134.252;2023-05-08T08:09:38;99560.06;;;19.00;21.55
46846;BME280;33947;46.804;134.252;2023-05-08T08:13:44;99527.13;;;18.49;22.42
46846;BME280;33947;46.804;134.252;2023-05-08T08:18:09;99562.16;;;18.36;22.86
46846;BME280;33947;46.804;134.252;2023-05-08T08:26:37;99630.00;;;17.52;29.47
46846;BME280;33947;46.804;134.252;2023-05-08T08:34:01;99590.03;;;16.15;33.75
46846;BME280;33947;46.804;134.252;2023-05-08T08:42:12;99786.09;;;16.07;39.45
46846;BME280;33947;46.804;134.252;2023-05-08T08:45:16;99744.00;;;15.95;39.29
46846;BME280;33947;46.804;134.252;2023-05-08T08:48:26;99766.72;;;15.73;42.11
46846;BME280;33947;46.804;134.252;2023-05-08T08:51:46;99772.09;;;15.73;42.12
46846;BME280;33947;46.804;134.252;2023-05-08T08:54:54;99776.56;;;15.58;41.52
46846;BME280;33947;46.804;134.252;2023-05-08T09:01:37;99816.44;;;15.16;44.38
46846;BME280;33947;46.804;134.252;2023-05-08T09:04:41;99839.22;;;14.59;46.72
46846;BME280;33947;46.804;134.252;2023-05-08T09:07:48;99831.03;;;14.62;45.70
46846;BME280;33947;46.804;134.252;2023-05-08T09:10:54;99867.59;;;14.28;47.50
46846;BME280;33947;46.804;134.252;2023-05-08T09:14:11;99843.97;;;14.20;47.99
46846;BME280;33947;46.804;134.252;2023-05-08T09:17:20;99857.75;;;14.28;46.89
46846;BME280;33947;46.804;134.252;2023-05-08T09:20:46;99825.38;;;14.01;48.43
46846;BME280;33947;46.804;134.252;2023-05-08T09:24:22;99894.81;;;14.01;47.89
46846;BME280;33947;46.804;134.252;2023-05-08T09:27:32;99895.34;;;14.08;48.54
46846;BME280;33947;46.804;134.252;2023-05-08T09:33:54;99898.28;;;13.85;49.23
46846;BME280;33947;46.804;134.252;2023-05-08T09:40:20;99921.84;;;13.58;52.80
46846;BME280;33947;46.804;134.252;2023-05-08T09:43:43;99872.59;;;13.09;53.41
46846;BME280;33947;46.804;134.252;2023-05-08T09:47:09;99930.00;;;12.99;60.79
46846;BME280;33947;46.804;134.252;2023-05-08T09:50:13;99909.75;;;12.76;58.06
46846;BME280;33947;46.804;134.252;2023-05-08T09:53:19;99883.56;;;12.45;61.20
46846;BME280;33947;46.804;134.252;2023-05-08T09:56:38;99868.16;;;12.33;59.87
46846;BME280;33947;46.804;134.252;2023-05-08T09:59:43;99867.59;;;12.25;60.06
46846;BME280;33947;46.804;134.252;2023-05-08T10:02:58;99879.47;;;12.57;59.58
46846;BME280;33947;46.804;134.252;2023-05-08T10:06:12;99870.59;;;12.57;59.96
46846;BME280;33947;46.804;134.252;2023-05-08T10:09:17;99874.72;;;12.64;58.90
46846;BME280;33947;46.804;134.252;2023-05-08T10:12:29;99878.28;;;12.44;59.75
46846;BME280;33947;46.804;134.252;2023-05-08T10:15:36;99838.84;;;11.92;61.23
46846;BME280;33947;46.804;134.252;2023-05-08T10:18:49;99876.00;;;12.15;63.38
46846;BME280;33947;46.804;134.252;2023-05-08T10:21:54;99901.28;;;12.26;60.00
46846;BME280;33947;46.804;134.252;2023-05-08T10:25:09;99933.50;;;12.40;60.12
46846;BME280;33947;46.804;134.252;2023-05-08T10:31:35;99939.31;;;12.29;61.17
46846;BME280;33947;46.804;134.252;2023-05-08T10:34:40;99942.09;;;12.06;60.83
46846;BME280;33947;46.804;134.252;2023-05-08T10:37:44;99958.28;;;11.99;64.13
46846;BME280;33947;46.804;134.252;2023-05-08T10:40:50;99959.34;;;11.95;60.97
46846;BME280;33947;46.804;134.252;2023-05-08T10:44:04;99976.78;;;12.04;59.83
46846;BME280;33947;46.804;134.252;2023-05-08T10:51:12;100003.94;;;11.90;60.90
46846;BME280;33947;46.804;134.252;2023-05-08T10:58:29;100032.97;;;11.96;61.29
46846;BME280;33947;46.804;134.252;2023-05-08T11:01:37;100032.19;;;11.93;62.15
46846;BME280;33947;46.804;134.252;2023-05-08T11:04:46;99977.75;;;11.35;62.51
46846;BME280;33947;46.804;134.252;2023-05-08T11:07:56;100010.19;;;11.44;62.88
46846;BME280;33947;46.804;134.252;2023-05-08T11:11:16;100007.38;;;11.25;64.22
46846;BME280;33947;46.804;134.252;2023-05-08T11:14:28;100015.28;;;11.27;63.39
46846;BME280;33947;46.804;134.252;2023-05-08T11:17:52;100053.78;;;11.40;64.99
46846;BME280;33947;46.804;134.252;2023-05-08T11:21:01;100053.50;;;11.70;62.45
46846;BME280;33947;46.804;134.252;2023-05-08T11:24:17;99972.81;;;11.25;61.52
46846;BME280;33947;46.804;134.252;2023-05-08T11:30:54;100028.75;;;10.98;63.60
46846;BME280;33947;46.804;134.252;2023-05-08T11:33:58;100036.78;;;11.21;62.31
46846;BME280;33947;46.804;134.252;2023-05-08T11:37:08;100051.63;;;11.03;64.93
46846;BME280;33947;46.804;134.252;2023-05-08T11:44:19;100055.13;;;11.28;63.52
46846;BME280;33947;46.804;134.252;2023-05-08T11:47:43;100069.06;;;10.86;65.88
46846;BME280;33947;46.804;134.252;2023-05-08T11:50:52;100050.28;;;10.65;65.35
46846;BME280;33947;46.804;134.252;2023-05-08T11:53:58;100047.63;;;10.40;66.96
46846;BME280;33947;46.804;134.252;2023-05-08T11:57:03;100043.31;;;10.36;66.78
46846;BME280;33947;46.804;134.252;2023-05-08T12:00:10;100049.81;;;10.54;66.59
46846;BME280;33947;46.804;134.252;2023-05-08T12:03:20;100032.63;;;10.64;65.51
46846;BME280;33947;46.804;134.252;2023-05-08T12:06:28;100049.56;;;10.62;65.98
46846;BME280;33947;46.804;134.252;2023-05-08T12:09:34;100039.59;;;10.41;65.93
46846;BME280;33947;46.804;134.252;2023-05-08T12:12:42;100077.75;;;10.66;64.78
46846;BME280;33947;46.804;134.252;2023-05-08T12:15:49;100082.38;;;10.59;65.35
46846;BME280;33947;46.804;134.252;2023-05-08T12:18:54;100082.16;;;10.40;67.42
46846;BME280;33947;46.804;134.252;2023-05-08T12:21:59;100085.41;;;10.48;64.89
46846;BME280;33947;46.804;134.252;2023-05-08T12:25:05;100096.81;;;10.52;65.01
46846;BME280;33947;46.804;134.252;2023-05-08T12:28:10;100045.66;;;10.18;65.25
46846;BME280;33947;46.804;134.252;2023-05-08T12:31:25;100004.00;;;10.20;64.00
46846;BME280;33947;46.804;134.252;2023-05-08T12:34:37;99941.19;;;9.94;63.33
46846;BME280;33947;46.804;134.252;2023-05-08T12:38:04;100097.38;;;10.62;65.91
46846;BME280;33947;46.804;134.252;2023-05-08T12:41:22;100050.59;;;10.29;66.48
46846;BME280;33947;46.804;134.252;2023-05-08T12:44:30;100078.06;;;10.28;66.18
46846;BME280;33947;46.804;134.252;2023-05-08T12:47:37;100073.06;;;10.19;66.32
46846;BME280;33947;46.804;134.252;2023-05-08T12:51:03;100089.16;;;10.42;66.06
46846;BME280;33947;46.804;134.252;2023-05-08T12:54:10;100079.59;;;10.35;65.59
46846;BME280;33947;46.804;134.252;2023-05-08T12:57:17;100068.47;;;10.24;65.05
46846;BME280;33947;46.804;134.252;2023-05-08T13:04:08;100091.53;;;9.65;66.24
46846;BME280;33947;46.804;134.252;2023-05-08T13:07:17;99953.56;;;8.48;67.46
46846;BME280;33947;46.804;134.252;2023-05-08T13:10:53;99978.22;;;8.83;65.80
46846;BME280;33947;46.804;134.252;2023-05-08T13:14:00;100069.56;;;9.31;65.18
46846;BME280;33947;46.804;134.252;2023-05-08T13:17:06;100069.44;;;9.04;65.19
46846;BME280;33947;46.804;134.252;2023-05-08T13:20:19;100099.38;;;9.08;65.07
46846;BME280;33947;46.804;134.252;2023-05-08T13:23:28;100011.81;;;8.48;64.03
46846;BME280;33947;46.804;134.252;2023-05-08T13:26:32;100077.00;;;8.53;63.82
46846;BME280;33947;46.804;134.252;2023-05-08T13:29:47;100083.34;;;8.46;63.26
46846;BME280;33947;46.804;134.252;2023-05-08T13:32:57;100054.84;;;8.21;64.23
46846;BME280;33947;46.804;134.252;2023-05-08T13:36:03;100054.97;;;8.17;62.93
46846;BME280;33947;46.804;134.252;2023-05-08T13:39:10;100078.53;;;8.26;63.38
46846;BME280;33947;46.804;134.252;2023-05-08T13:42:24;99979.38;;;7.70;63.48
46846;BME280;33947;46.804;134.252;2023-05-08T13:45:29;100071.03;;;8.44;63.08
46846;BME280;33947;46.804;134.252;2023-05-08T13:48:34;100073.91;;;8.34;62.72
46846;BME280;33947;46.804;134.252;2023-05-08T13:51:39;100080.19;;;8.30;62.76
46846;BME280;33947;46.804;134.252;2023-05-08T13:54:47;100077.88;;;8.18;63.17
46846;BME280;33947;46.804;134.252;2023-05-08T13:57:52;100075.50;;;8.05;63.10
46846;BME280;33947;46.804;134.252;2023-05-08T14:00:56;100073.31;;;7.85;63.57
46846;BME280;33947;46.804;134.252;2023-05-08T14:04:04;100072.78;;;8.08;61.96
46846;BME280;33947;46.804;134.252;2023-05-08T14:07:08;100065.81;;;8.04;61.97
46846;BME280;33947;46.804;134.252;2023-05-08T14:10:12;100069.53;;;7.97;62.15
46846;BME280;33947;46.804;134.252;2023-05-08T14:13:19;100070.22;;;7.67;62.81
46846;BME280;33947;46.804;134.252;2023-05-08T14:16:23;100077.25;;;7.67;62.61
46846;BME280;33947;46.804;134.252;2023-05-08T14:19:27;100079.56;;;7.42;62.55
46846;BME280;33947;46.804;134.252;2023-05-08T14:22:32;100081.09;;;7.53;61.87
46846;BME280;33947;46.804;134.252;2023-05-08T14:25:36;100082.31;;;7.37;62.18
46846;BME280;33947;46.804;134.252;2023-05-08T14:28:41;100076.16;;;7.36;61.67
46846;BME280;33947;46.804;134.252;2023-05-08T14:31:45;100067.97;;;7.08;62.14
46846;BME280;33947;46.804;134.252;2023-05-08T14:34:49;99962.72;;;6.42;61.46
46846;BME280;33947;46.804;134.252;2023-05-08T14:38:01;100080.63;;;7.33;61.12
46846;BME280;33947;46.804;134.252;2023-05-08T14:41:05;100058.16;;;7.13;60.99
46846;BME280;33947;46.804;134.252;2023-05-08T14:44:09;100099.13;;;7.34;61.28
46846;BME280;33947;46.804;134.252;2023-05-08T14:47:13;100103.44;;;7.37;59.85
46846;BME280;33947;46.804;134.252;2023-05-08T14:50:17;100087.72;;;6.87;60.57
46846;BME280;33947;46.804;134.252;2023-05-08T14:53:24;100095.31;;;7.04;61.16
46846;BME280;33947;46.804;134.252;2023-05-08T14:56:29;100091.22;;;6.89;61.68
46846;BME280;33947;46.804;134.252;2023-05-08T14:59:48;100087.19;;;6.68;61.21
46846;BME280;33947;46.804;134.252;2023-05-08T15:02:57;100074.13;;;6.60;62.22
46846;BME280;33947;46.804;134.252;2023-05-08T15:06:01;100065.38;;;6.56;61.65
46846;BME280;33947;46.804;134.252;2023-05-08T15:09:07;100083.72;;;6.65;61.93
46846;BME280;33947;46.804;134.252;2023-05-08T15:12:14;100093.63;;;6.53;62.29
46846;BME280;33947;46.804;134.252;2023-05-08T15:15:18;100082.47;;;6.36;63.10
46846;BME280;33947;46.804;134.252;2023-05-08T15:18:23;100070.22;;;6.32;63.44
46846;BME280;33947;46.804;134.252;2023-05-08T15:21:30;100078.16;;;6.31;63.25
46846;BME280;33947;46.804;134.252;2023-05-08T15:24:34;100087.63;;;6.41;64.49
46846;BME280;33947;46.804;134.252;2023-05-08T15:27:38;100083.81;;;6.59;63.74
46846;BME280;33947;46.804;134.252;2023-05-08T15:30:44;100082.00;;;6.63;66.09
46846;BME280;33947;46.804;134.252;2023-05-08T15:33:49;100072.47;;;7.03;61.84
46846;BME280;33947;46.804;134.252;2023-05-08T15:36:56;100056.78;;;6.93;61.79
46846;BME280;33947;46.804;134.252;2023-05-08T15:40:03;100055.09;;;6.89;62.26
46846;BME280;33947;46.804;134.252;2023-05-08T15:43:07;100065.81;;;7.27;61.07
46846;BME280;33947;46.804;134.252;2023-05-08T15:46:14;100072.72;;;7.33;60.30
46846;BME280;33947;46.804;134.252;2023-05-08T15:49:18;100062.88;;;7.41;59.63
46846;BME280;33947;46.804;134.252;2023-05-08T15:52:28;100068.09;;;7.43;59.28
46846;BME280;33947;46.804;134.252;2023-05-08T15:55:32;100061.78;;;7.50;59.41
46846;BME280;33947;46.804;134.252;2023-05-08T15:58:35;100040.00;;;7.38;59.37
46846;BME280;33947;46.804;134.252;2023-05-08T16:01:41;100061.59;;;7.59;58.94
46846;BME280;33947;46.804;134.252;2023-05-08T16:04:45;100048.53;;;7.51;59.28
46846;BME280;33947;46.804;134.252;2023-05-08T16:07:50;100056.03;;;7.70;58.68
46846;BME280;33947;46.804;134.252;2023-05-08T16:10:54;100051.34;;;7.44;58.95
46846;BME280;33947;46.804;134.252;2023-05-08T16:13:58;100046.59;;;7.60;58.71
46846;BME280;33947;46.804;134.252;2023-05-08T16:17:04;100045.22;;;7.42;59.48
46846;BME280;33947;46.804;134.252;2023-05-08T16:20:12;100038.19;;;7.41;59.19
46846;BME280;33947;46.804;134.252;2023-05-08T16:23:16;100039.56;;;7.18;60.32
46846;BME280;33947;46.804;134.252;2023-05-08T16:26:20;100032.09;;;7.38;59.44
46846;BME280;33947;46.804;134.252;2023-05-08T16:29:24;100025.34;;;7.25;59.36
46846;BME280;33947;46.804;134.252;2023-05-08T16:32:29;100021.34;;;7.46;59.06
46846;BME280;33947;46.804;134.252;2023-05-08T16:35:34;100015.25;;;7.43;58.71
46846;BME280;33947;46.804;134.252;2023-05-08T16:38:38;100017.94;;;7.41;59.06
46846;BME280;33947;46.804;134.252;2023-05-08T16:41:53;99875.22;;;6.64;58.30
46846;BME280;33947;46.804;134.252;2023-05-08T16:45:00;99991.53;;;7.39;58.63
46846;BME280;33947;46.804;134.252;2023-05-08T16:48:05;99996.09;;;7.33;58.74
46846;BME280;33947;46.804;134.252;2023-05-08T16:51:10;100003.47;;;7.18;59.27
46846;BME280;33947;46.804;134.252;2023-05-08T16:54:14;99997.03;;;7.30;58.66
46846;BME280;33947;46.804;134.252;2023-05-08T16:57:19;100013.19;;;7.16;59.13
46846;BME280;33947;46.804;134.252;2023-05-08T17:00:23;100002.25;;;7.33;58.51
46846;BME280;33947;46.804;134.252;2023-05-08T17:03:30;99987.28;;;6.91;59.46
46846;BME280;33947;46.804;134.252;2023-05-08T17:06:34;99983.31;;;6.70;60.52
46846;BME280;33947;46.804;134.252;2023-05-08T17:09:38;99983.22;;;6.75;60.44
46846;BME280;33947;46.804;134.252;2023-05-08T17:12:43;99970.09;;;6.72;60.11
46846;BME280;33947;46.804;134.252;2023-05-08T17:15:47;99992.88;;;6.76;60.15
46846;BME280;33947;46.804;134.252;2023-05-08T17:18:51;99988.59;;;6.70;60.86
46846;BME280;33947;46.804;134.252;2023-05-08T17:21:55;99995.53;;;6.30;61.96
46846;BME280;33947;46.804;134.252;2023-05-08T17:25:01;99999.41;;;6.56;61.03
46846;BME280;33947;46.804;134.252;2023-05-08T17:28:05;99989.41;;;6.74;60.54
46846;BME280;33947;46.804;134.252;2023-05-08T17:31:09;99989.03;;;6.92;60.11
46846;BME280;33947;46.804;134.252;2023-05-08T17:34:13;99991.94;;;6.78;60.35
46846;BME280;33947;46.804;134.252;2023-05-08T17:37:17;99962.91;;;6.78;59.95
46846;BME280;33947;46.804;134.252;2023-05-08T17:40:22;99974.00;;;6.94;59.66
46846;BME280;33947;46.804;134.252;2023-05-08T17:43:28;99856.06;;;6.12;60.13
46846;BME280;33947;46.804;134.252;2023-05-08T17:46:51;99912.50;;;6.00;61.48
46846;BME280;33947;46.804;134.252;2023-05-08T17:49:58;99990.78;;;6.49;61.35
46846;BME280;33947;46.804;134.252;2023-05-08T17:53:02;99973.06;;;6.55;61.35
46846;BME280;33947;46.804;134.252;2023-05-08T17:56:07;99963.03;;;6.72;60.02
46846;BME280;33947;46.804;134.252;2023-05-08T17:59:11;99946.00;;;6.43;60.76
46846;BME280;33947;46.804;134.252;2023-05-08T18:02:15;99953.59;;;6.60;60.57
46846;BME280;33947;46.804;134.252;2023-05-08T18:05:19;99949.84;;;6.72;59.51
46846;BME280;33947;46.804;134.252;2023-05-08T18:08:26;99961.22;;;6.74;59.94
46846;BME280;33947;46.804;134.252;2023-05-08T18:11:32;99867.88;;;6.37;59.19
46846;BME280;33947;46.804;134.252;2023-05-08T18:14:36;99934.22;;;6.61;59.90
46846;BME280;33947;46.804;134.252;2023-05-08T18:17:43;99959.25;;;6.86;59.69
46846;BME280;33947;46.804;134.252;2023-05-08T18:20:47;99949.13;;;6.65;59.80
46846;BME280;33947;46.804;134.252;2023-05-08T18:23:51;99948.22;;;6.66;60.04
46846;BME280;33947;46.804;134.252;2023-05-08T18:26:55;99953.31;;;6.74;60.29
46846;BME280;33947;46.804;134.252;2023-05-08T18:29:59;99964.06;;;6.66;60.58
46846;BME280;33947;46.804;134.252;2023-05-08T18:33:07;99958.88;;;6.60;61.33
46846;BME280;33947;46.804;134.252;2023-05-08T18:36:15;99904.59;;;6.48;60.11
46846;BME280;33947;46.804;134.252;2023-05-08T18:39:19;99948.88;;;6.76;60.18
46846;BME280;33947;46.804;134.252;2023-05-08T18:42:25;99919.41;;;6.54;60.32
46846;BME280;33947;46.804;134.252;2023-05-08T18:45:29;99821.78;;;6.12;59.57
46846;BME280;33947;46.804;134.252;2023-05-08T18:48:54;99953.28;;;6.76;60.25
46846;BME280;33947;46.804;134.252;2023-05-08T18:51:58;99943.97;;;7.02;59.46
46846;BME280;33947;46.804;134.252;2023-05-08T18:55:03;99935.31;;;6.93;59.58
46846;BME280;33947;46.804;134.252;2023-05-08T18:58:07;99952.31;;;6.80;60.40
46846;BME280;33947;46.804;134.252;2023-05-08T19:01:11;99954.25;;;6.72;60.90
46846;BME280;33947;46.804;134.252;2023-05-08T19:04:15;99941.69;;;6.83;60.47
46846;BME280;33947;46.804;134.252;2023-05-08T19:07:19;99931.34;;;6.74;61.11
46846;BME280;33947;46.804;134.252;2023-05-08T19:10:23;99929.56;;;6.74;60.27